createdAt,value
2016-10-29T00:15:20.642Z,20.89
2016-10-29T00:16:30.991Z,20.88
2016-10-29T00:17:41.341Z,20.82
2016-10-29T00:18:51.695Z,20.88
2016-10-29T00:20:02.043Z,20.88
2016-10-29T00:21:12.397Z,20.8
2016-10-29T00:22:22.749Z,20.83
2016-10-29T00:23:33.088Z,20.89
2016-10-29T00:24:43.454Z,20.82
2016-10-29T00:25:53.805Z,20.88
2016-10-29T00:27:04.158Z,20.85
2016-10-29T00:28:14.511Z,20.85
2016-10-29T00:29:24.866Z,20.83
2016-10-29T00:30:35.216Z,20.86
2016-10-29T00:31:45.571Z,20.86
2016-10-29T00:32:55.928Z,20.9
2016-10-29T00:34:06.282Z,20.83
2016-10-29T00:35:16.636Z,20.86
2016-10-29T00:36:26.991Z,20.88
2016-10-29T00:37:37.391Z,20.83
2016-10-29T00:38:47.797Z,20.88
2016-10-29T00:39:58.195Z,20.86
2016-10-29T00:41:08.602Z,20.88
2016-10-29T00:42:19.001Z,20.82
2016-10-29T00:43:29.405Z,20.88
2016-10-29T00:44:39.837Z,20.85
2016-10-29T00:45:50.220Z,20.78
2016-10-29T00:47:00.620Z,20.82
2016-10-29T00:48:11.017Z,20.88
2016-10-29T00:49:21.420Z,20.86
2016-10-29T00:50:31.821Z,20.75
2016-10-29T01:15:11.208Z,20.8
2016-10-29T01:16:21.606Z,20.73
2016-10-29T01:17:31.997Z,20.82
2016-10-29T01:18:42.402Z,20.78
2016-10-29T01:19:52.784Z,20.78
2016-10-29T01:21:03.187Z,20.8
2016-10-29T01:22:13.580Z,20.8
2016-10-29T01:23:23.976Z,20.78
2016-10-29T02:15:06.067Z,20.75
2016-10-29T02:16:16.463Z,20.75
2016-10-29T02:17:26.853Z,20.75
2016-10-29T02:18:37.253Z,20.78
2016-10-29T02:19:47.636Z,20.75
2016-10-29T02:20:58.036Z,20.68
2016-10-29T02:22:08.424Z,20.71
2016-10-29T02:23:18.836Z,20.73
2016-10-29T02:24:29.239Z,20.66
2016-10-29T02:25:39.661Z,20.78
2016-10-29T02:26:50.053Z,20.68
2016-10-29T02:28:00.471Z,20.68
2016-10-29T02:29:10.837Z,20.75
2016-10-29T02:30:21.233Z,20.73
2016-10-29T02:31:31.638Z,20.73
2016-10-29T02:32:42.031Z,20.7
2016-10-29T02:33:52.420Z,20.7
2016-10-29T02:35:02.822Z,20.68
2016-10-29T02:36:13.222Z,20.68
2016-10-29T02:37:23.620Z,20.73
2016-10-29T02:38:34.020Z,20.71
2016-10-29T02:39:44.418Z,20.68
2016-10-29T02:40:54.818Z,20.75
2016-10-29T02:42:05.222Z,20.74
2016-10-29T02:43:15.622Z,20.66
2016-10-29T02:44:26.023Z,20.68
2016-10-29T02:45:36.428Z,20.71
2016-10-29T02:46:46.715Z,20.73
2016-10-29T02:47:57.112Z,20.73
2016-10-29T02:49:07.513Z,20.67
2016-10-29T02:50:17.914Z,20.7
2016-10-29T03:14:59.993Z,20.73
2016-10-29T03:16:10.393Z,20.67
2016-10-29T03:17:20.787Z,20.64
2016-10-29T03:18:31.182Z,20.7
2016-10-29T03:19:41.574Z,20.68
2016-10-29T03:20:51.970Z,20.66
2016-10-29T03:22:02.368Z,20.68
2016-10-29T03:23:12.761Z,20.68
2016-10-29T03:24:23.167Z,20.71
2016-10-29T03:25:33.565Z,20.67
2016-10-29T03:26:43.964Z,20.67
2016-10-29T03:27:54.366Z,20.68
2016-10-29T03:29:04.765Z,20.66
2016-10-29T03:30:15.162Z,20.66
2016-10-29T03:31:25.560Z,20.71
2016-10-29T03:32:35.952Z,20.71
2016-10-29T03:33:46.355Z,20.68
2016-10-29T03:34:56.758Z,20.73
2016-10-29T03:36:07.158Z,20.66
2016-10-29T03:37:17.561Z,20.66
2016-10-29T03:38:27.962Z,20.7
2016-10-29T03:39:38.363Z,20.66
2016-10-29T03:40:48.770Z,20.68
2016-10-29T03:41:59.172Z,20.66
2016-10-29T03:43:09.569Z,20.67
2016-10-29T03:44:19.974Z,20.74
2016-10-29T03:45:30.375Z,20.68
2016-10-29T03:46:40.776Z,20.67
2016-10-29T03:47:51.184Z,20.71
2016-10-29T03:49:01.580Z,20.66
2016-10-29T03:50:11.978Z,20.7
2016-10-29T04:14:58.539Z,20.71
2016-10-29T04:16:08.885Z,20.74
2016-10-29T04:17:19.230Z,20.78
2016-10-29T04:18:29.577Z,20.75
2016-10-29T04:19:39.927Z,20.77
2016-10-29T04:20:50.276Z,20.74
2016-10-29T04:22:00.627Z,20.78
2016-10-29T04:23:10.978Z,20.8
2016-10-29T04:24:21.326Z,20.77
2016-10-29T04:25:31.673Z,20.75
2016-10-29T04:26:42.025Z,20.78
2016-10-29T04:27:52.379Z,20.78
2016-10-29T04:29:02.739Z,20.77
2016-10-29T04:30:13.137Z,20.8
2016-10-29T04:31:23.539Z,20.85
2016-10-29T04:32:33.939Z,20.82
2016-10-29T04:33:44.343Z,20.78
2016-10-29T04:34:54.744Z,20.82
2016-10-29T04:36:05.145Z,20.86
2016-10-29T04:37:15.547Z,20.85
2016-10-29T04:38:25.949Z,20.86
2016-10-29T04:39:36.363Z,20.85
2016-10-29T04:40:46.750Z,20.88
2016-10-29T04:41:57.151Z,20.82
2016-10-29T04:43:07.557Z,20.86
2016-10-29T04:44:17.954Z,20.88
2016-10-29T04:45:28.359Z,20.8
2016-10-29T04:46:38.755Z,20.85
2016-10-29T04:47:49.157Z,20.82
2016-10-29T04:48:59.561Z,20.88
2016-10-29T04:50:09.957Z,20.85
2016-10-29T05:14:55.521Z,20.82
2016-10-29T05:16:05.867Z,20.85
2016-10-29T05:17:16.213Z,20.88
2016-10-29T05:18:26.560Z,20.88
2016-10-29T05:19:36.910Z,20.88
2016-10-29T05:20:47.259Z,20.9
2016-10-29T05:21:57.611Z,20.83
2016-10-29T05:23:07.962Z,20.85
2016-10-29T05:24:18.315Z,20.82
2016-10-29T05:25:28.668Z,20.82
2016-10-29T05:26:39.026Z,20.89
2016-10-29T05:27:49.373Z,20.82
2016-10-29T05:28:59.726Z,20.88
2016-10-29T05:30:10.081Z,20.83
2016-10-29T05:31:20.476Z,20.89
2016-10-29T05:32:30.880Z,20.85
2016-10-29T05:33:41.277Z,20.86
2016-10-29T05:34:51.679Z,20.9
2016-10-29T05:36:02.083Z,20.88
2016-10-29T05:37:12.482Z,20.89
2016-10-29T05:38:22.882Z,20.89
2016-10-29T05:39:33.283Z,20.88
2016-10-29T05:40:43.678Z,20.85
2016-10-29T05:41:54.089Z,20.86
2016-10-29T05:43:04.487Z,20.82
2016-10-29T05:44:14.887Z,20.85
2016-10-29T05:45:25.290Z,20.85
2016-10-29T05:46:35.696Z,20.86
2016-10-29T05:47:46.096Z,20.83
2016-10-29T05:48:56.495Z,20.88
2016-10-29T05:50:06.895Z,20.89
2016-10-29T06:14:40.863Z,20.9
2016-10-29T06:15:51.253Z,20.85
2016-10-29T06:17:01.648Z,20.9
2016-10-29T06:18:12.042Z,20.86
2016-10-29T06:19:22.436Z,20.82
2016-10-29T06:20:32.836Z,20.82
2016-10-29T06:21:43.234Z,20.89
2016-10-29T06:22:53.635Z,20.86
2016-10-29T06:24:04.032Z,20.88
2016-10-29T06:25:14.426Z,20.88
2016-10-29T06:26:24.830Z,20.85
2016-10-29T06:27:35.234Z,20.85
2016-10-29T06:28:45.632Z,20.86
2016-10-29T06:29:56.035Z,20.85
2016-10-29T06:31:06.436Z,20.83
2016-10-29T06:32:16.837Z,20.88
2016-10-29T06:33:27.239Z,20.86
2016-10-29T06:34:37.631Z,20.88
2016-10-29T06:35:48.036Z,20.86
2016-10-29T06:36:58.437Z,20.85
2016-10-29T06:38:08.838Z,20.85
2016-10-29T06:39:19.237Z,20.85
2016-10-29T06:40:29.636Z,20.86
2016-10-29T06:41:40.038Z,20.89
2016-10-29T06:42:50.441Z,20.89
2016-10-29T06:44:00.851Z,20.86
2016-10-29T06:45:11.253Z,20.82
2016-10-29T06:46:21.666Z,20.96
2016-10-29T06:47:32.059Z,20.86
2016-10-29T06:48:42.461Z,20.82
2016-10-29T06:49:52.868Z,20.9
2016-10-29T07:15:06.430Z,20.9
2016-10-29T07:16:16.779Z,20.85
2016-10-29T07:17:27.125Z,20.88
2016-10-29T07:18:37.475Z,20.86
2016-10-29T07:19:47.825Z,20.9
2016-10-29T07:20:58.175Z,20.92
2016-10-29T07:22:08.524Z,20.86
2016-10-29T07:23:18.872Z,20.95
2016-10-29T07:24:29.223Z,20.95
2016-10-29T07:25:39.574Z,20.88
2016-10-29T07:26:49.925Z,20.92
2016-10-29T07:28:00.278Z,20.88
2016-10-29T07:29:10.631Z,20.85
2016-10-29T07:30:21.033Z,20.85
2016-10-29T07:31:31.433Z,20.89
2016-10-29T07:32:41.836Z,20.82
2016-10-29T07:33:52.236Z,20.89
2016-10-29T07:35:02.638Z,20.18
2016-10-29T07:36:13.041Z,19.94
2016-10-29T07:37:23.437Z,20.19
2016-10-29T07:38:33.836Z,20.32
2016-10-29T07:39:44.240Z,20.5
2016-10-29T07:40:54.643Z,20.64
2016-10-29T07:42:05.042Z,20.64
2016-10-29T07:43:15.442Z,20.74
2016-10-29T07:44:25.841Z,20.77
2016-10-29T07:45:36.241Z,20.82
2016-10-29T07:46:46.642Z,20.77
2016-10-29T07:47:57.042Z,20.8
2016-10-29T07:49:07.447Z,20.74
2016-10-29T07:50:17.851Z,20.82
2016-10-29T08:15:11.117Z,20.58
2016-10-29T08:16:21.463Z,20.73
2016-10-29T08:17:31.809Z,20.7
2016-10-29T08:18:42.150Z,20.59
2016-10-29T08:19:52.504Z,20.71
2016-10-29T08:21:02.852Z,20.66
2016-10-29T08:22:13.207Z,20.68
2016-10-29T08:23:23.559Z,20.66
2016-10-29T08:24:33.910Z,20.75
2016-10-29T08:25:44.260Z,20.74
2016-10-29T08:26:54.611Z,20.7
2016-10-29T08:28:04.964Z,20.75
2016-10-29T08:29:15.364Z,20.74
2016-10-29T08:30:25.762Z,20.82
2016-10-29T08:31:36.163Z,20.83
2016-10-29T08:32:47.961Z,20.78
2016-10-29T08:33:58.701Z,20.82
2016-10-29T08:35:09.102Z,20.88
2016-10-29T08:36:19.499Z,20.88
2016-10-29T08:37:29.908Z,20.88
2016-10-29T08:38:40.319Z,20.83
2016-10-29T09:15:07.001Z,20.33
2016-10-29T09:16:17.346Z,20.53
2016-10-29T09:17:27.762Z,20.67
2016-10-29T10:15:02.672Z,21.01
2016-10-29T10:16:13.021Z,21.05
2016-10-29T10:17:23.369Z,21.01
2016-10-29T10:18:33.723Z,21
2016-10-29T10:19:44.069Z,21.07
2016-10-29T10:20:54.419Z,21
2016-10-29T10:22:04.767Z,21.01
2016-10-29T10:23:15.118Z,21.07
2016-10-29T10:24:25.472Z,21.08
2016-10-29T10:25:35.822Z,21.08
2016-10-29T10:26:46.172Z,21.05
2016-10-29T10:27:56.566Z,21.07
2016-10-29T10:29:06.968Z,21.04
2016-10-29T10:30:17.364Z,21.01
2016-10-29T11:15:01.839Z,21.13
2016-10-29T11:16:12.232Z,21.13
2016-10-29T11:17:22.623Z,21.2
2016-10-29T11:18:33.022Z,21.14
2016-10-29T11:19:43.418Z,21.13
2016-10-29T11:20:53.822Z,21.14
2016-10-29T11:22:04.219Z,21.17
2016-10-29T11:23:14.639Z,21.13
2016-10-29T12:14:59.143Z,21.15
2016-10-29T12:16:09.501Z,21.15
2016-10-29T12:17:19.846Z,21.14
2016-10-29T13:15:22.571Z,21.26
2016-10-29T13:16:32.919Z,21.26
2016-10-29T13:17:43.264Z,21.29
2016-10-29T13:18:53.613Z,21.3
2016-10-29T13:20:03.967Z,21.28
2016-10-29T13:21:14.320Z,21.25
2016-10-29T13:22:24.699Z,21.25
2016-10-29T13:23:35.056Z,21.29
2016-10-29T13:24:45.408Z,21.23
2016-10-29T13:25:55.759Z,21.26
2016-10-29T13:27:06.112Z,21.33
2016-10-29T13:27:56.412Z,21.28
2016-10-29T14:15:30.960Z,21.28
2016-10-29T14:16:41.353Z,21.29
2016-10-29T15:15:34.401Z,21.4
2016-10-29T15:16:44.752Z,21.43
2016-10-29T15:17:55.093Z,21.43
2016-10-29T15:19:05.450Z,21.38
2016-10-29T16:15:35.725Z,21.33
2016-10-29T17:15:32.113Z,21.33
2016-10-29T17:16:42.454Z,21.4
2016-10-29T17:17:52.793Z,21.41
2016-10-29T17:19:03.141Z,21.41
2016-10-29T17:20:13.497Z,21.38
2016-10-29T18:15:26.338Z,21.43
2016-10-29T18:16:36.684Z,21.47
2016-10-29T18:17:47.026Z,21.43
2016-10-29T18:18:57.387Z,21.41
2016-10-29T18:20:07.742Z,21.43
2016-10-29T18:21:18.096Z,21.5
2016-10-29T18:22:28.449Z,21.56
2016-10-29T18:23:38.803Z,21.38
2016-10-29T18:24:49.157Z,21.5
2016-10-29T18:25:59.512Z,21.45
2016-10-29T18:27:09.865Z,21.5
2016-10-29T18:28:20.221Z,21.5
2016-10-29T18:29:30.590Z,21.44
2016-10-29T18:30:40.964Z,21.41
2016-10-29T18:31:51.324Z,21.44
2016-10-29T18:33:01.682Z,21.5
2016-10-29T18:34:12.041Z,21.56
2016-10-29T18:35:22.407Z,21.5
2016-10-29T18:36:32.764Z,21.47
2016-10-29T18:37:43.131Z,21.5
2016-10-29T19:15:41.167Z,21.51
2016-10-29T19:16:51.519Z,21.5
2016-10-29T19:18:01.874Z,21.53
2016-10-29T19:19:12.223Z,21.53
2016-10-29T19:20:22.573Z,21.47
2016-10-29T19:21:32.982Z,21.59
2016-10-29T19:22:43.339Z,21.5
2016-10-29T19:23:53.693Z,21.59
2016-10-29T19:25:04.056Z,21.54
2016-10-29T19:26:14.406Z,21.53
2016-10-29T19:27:24.758Z,21.58
2016-10-29T20:15:35.704Z,21.63
2016-10-29T21:15:26.097Z,21.59
2016-10-29T21:16:36.451Z,21.62
2016-10-29T21:17:46.805Z,21.51
2016-10-29T21:18:57.281Z,21.54
2016-10-29T21:20:07.645Z,21.5
2016-10-29T21:21:18.003Z,21.65
2016-10-29T21:22:28.362Z,21.66
2016-10-29T21:23:38.712Z,21.63
2016-10-29T22:15:41.416Z,21.65
2016-10-29T22:16:51.768Z,21.62
2016-10-29T22:18:02.124Z,21.51
2016-10-29T22:19:12.465Z,21.68
2016-10-29T23:15:44.251Z,21.32
2016-10-29T23:16:54.603Z,21.25
2016-10-29T23:18:04.947Z,21.26
2016-10-29T23:19:15.299Z,21.22
2016-10-29T23:20:25.649Z,21.26
2016-10-29T23:21:36.002Z,21.23
2016-10-29T23:22:46.359Z,21.25
2016-10-29T23:23:56.719Z,21.25
2016-10-29T23:25:07.068Z,21.2
2016-10-29T23:26:17.420Z,21.17
2016-10-29T23:27:27.780Z,21.19
2016-10-29T23:28:38.140Z,21.25
2016-10-29T23:29:48.499Z,21.2
